Time;durP1;ratioP1;P1;durP2;ratioP2;P2;SDS_P1;SDS_P2;PMS_P1;PMS_P2;Temp;Humidity;BMP_temperature;BMP_pressure;BME280_temperature;BME280_humidity;BME280_pressure;Samples;Min_cycle;Max_cycle;Signal;HPM_P1;HPM_P2
2021/07/05 00:01:01;;;;;;;9.07;4.90;;;;;;;21.76;57.86;100890.88;4996212;28;20029;-71
2021/07/05 00:03:26;;;;;;;6.87;4.97;;;;;;;21.79;57.93;100890.81;5014978;28;20392;-72
2021/07/05 00:05:51;;;;;;;5.28;4.65;;;;;;;21.77;57.78;100886.47;5000045;28;20030;-73
2021/07/05 00:08:17;;;;;;;5.05;3.63;;;;;;;21.77;57.89;100887.34;4983465;28;20523;-72
2021/07/05 00:10:45;;;;;;;5.68;4.30;;;;;;;21.79;58.00;100893.47;4983508;28;20117;-72
2021/07/05 00:13:10;;;;;;;6.93;4.68;;;;;;;21.76;57.91;100888.25;5017414;28;20091;-72
2021/07/05 00:15:36;;;;;;;6.63;4.47;;;;;;;21.77;57.94;100903.13;4999545;28;20026;-72
2021/07/05 00:18:05;;;;;;;5.93;3.95;;;;;;;21.77;58.03;100889.09;4999510;28;20034;-72
2021/07/05 00:20:36;;;;;;;6.70;4.07;;;;;;;21.80;58.06;100894.31;4999614;28;20072;-72
2021/07/05 00:23:02;;;;;;;5.07;4.57;;;;;;;21.79;57.94;100892.59;5017096;28;20097;-72
2021/07/05 00:25:28;;;;;;;7.15;4.40;;;;;;;21.78;58.06;100886.44;4999580;28;20403;-72
2021/07/05 00:27:53;;;;;;;6.40;4.68;;;;;;;21.77;58.10;100887.34;5017001;28;20036;-72
2021/07/05 00:30:19;;;;;;;4.47;3.83;;;;;;;21.77;58.17;100878.59;4982998;28;20032;-72
2021/07/05 00:32:46;;;;;;;5.40;4.37;;;;;;;21.77;58.09;100876.81;4999413;28;20076;-72
2021/07/05 00:35:13;;;;;;;4.97;4.20;;;;;;;21.79;58.16;100880.28;4999571;28;20040;-72
2021/07/05 00:37:38;;;;;;;5.22;3.90;;;;;;;21.79;58.36;100877.66;5016913;28;20041;-72
2021/07/05 00:40:06;;;;;;;5.40;4.43;;;;;;;21.80;58.21;100874.13;4999618;28;20111;-72
2021/07/05 00:42:31;;;;;;;6.35;4.10;;;;;;;21.77;58.36;100876.81;4999645;28;20060;-72
2021/07/05 00:44:56;;;;;;;5.57;4.05;;;;;;;21.79;58.16;100877.66;5000739;28;20034;-72
2021/07/05 00:47:22;;;;;;;5.22;4.40;;;;;;;21.77;58.10;100874.19;4985215;28;20034;-72
2021/07/05 00:49:48;;;;;;;4.75;3.90;;;;;;;21.77;58.14;100875.94;4999973;28;20478;-72
2021/07/05 00:52:13;;;;;;;4.72;4.13;;;;;;;21.79;58.19;100872.41;4999270;28;20522;-72
2021/07/05 00:54:39;;;;;;;6.83;4.20;;;;;;;21.78;58.29;100870.66;5016835;28;20028;-72
2021/07/05 00:57:19;;;;;;;5.17;4.37;;;;;;;21.79;58.21;100869.75;4999343;28;20124;-72
2021/07/05 00:59:48;;;;;;;5.93;4.55;;;;;;;21.77;58.35;100857.53;4999012;28;20479;-72
2021/07/05 01:02:16;;;;;;;7.70;4.10;;;;;;;21.79;58.23;100858.38;4999557;28;20026;-72
2021/07/05 01:04:41;;;;;;;5.10;4.07;;;;;;;21.76;58.47;100859.28;4998921;28;20040;-72
2021/07/05 01:07:07;;;;;;;5.30;4.80;;;;;;;21.79;57.93;100861.00;4998867;28;20395;-72
2021/07/05 01:09:32;;;;;;;5.05;4.22;;;;;;;21.78;58.27;100860.13;4998562;28;20541;-72
2021/07/05 01:11:57;;;;;;;6.18;4.55;;;;;;;21.78;58.30;100843.47;4998928;28;20121;-72
2021/07/05 01:14:23;;;;;;;4.50;4.10;;;;;;;21.78;58.28;100844.34;4982181;28;20036;-72
2021/07/05 01:16:48;;;;;;;5.20;3.80;;;;;;;21.79;58.18;100839.94;4998777;28;20060;-72
2021/07/05 01:19:14;;;;;;;5.63;4.47;;;;;;;21.78;58.29;100841.69;4982400;28;20038;-72
2021/07/05 01:21:39;;;;;;;6.55;3.83;;;;;;;21.79;58.22;100839.94;5016239;28;20091;-72
2021/07/05 01:24:05;;;;;;;4.25;3.78;;;;;;;21.75;58.25;100832.09;4998634;28;20030;-72
2021/07/05 01:26:30;;;;;;;4.38;3.83;;;;;;;21.79;58.26;100830.28;4998656;28;20033;-72
2021/07/05 01:28:56;;;;;;;6.45;4.10;;;;;;;21.79;58.26;100826.78;5016116;28;20540;-72
2021/07/05 01:31:21;;;;;;;5.50;4.00;;;;;;;21.79;58.08;100826.78;5016015;28;20076;-72
2021/07/05 01:33:46;;;;;;;5.20;4.10;;;;;;;21.79;58.10;100830.28;5016031;28;20033;-72
2021/07/05 01:36:12;;;;;;;5.35;4.10;;;;;;;21.79;58.10;100824.16;5015880;28;20109;-72
2021/07/05 01:38:41;;;;;;;6.00;4.00;;;;;;;21.79;58.42;100824.16;4981869;28;20395;-72
2021/07/05 01:41:07;;;;;;;5.43;4.10;;;;;;;21.77;57.98;100825.94;5015801;28;20041;-72
2021/07/05 01:43:33;;;;;;;5.80;4.13;;;;;;;21.76;58.01;100819.81;4998133;28;20049;-72
2021/07/05 01:45:59;;;;;;;6.70;4.88;;;;;;;21.74;58.10;100827.72;5015644;28;20036;-72
2021/07/05 01:48:25;;;;;;;4.30;3.75;;;;;;;21.78;58.08;100831.19;4965809;28;20030;-73
2021/07/05 01:50:51;;;;;;;6.50;3.50;;;;;;;21.75;58.03;100828.59;4998117;28;20022;-72
2021/07/05 01:53:19;;;;;;;5.70;4.47;;;;;;;21.75;58.11;100828.59;4998469;28;20369;-72
2021/07/05 01:55:45;;;;;;;4.32;3.92;;;;;;;21.73;57.97;100823.34;5016032;28;20038;-72
2021/07/05 01:58:10;;;;;;;4.90;4.22;;;;;;;21.74;57.79;100821.59;5016129;28;20033;-72
2021/07/05 02:00:37;;;;;;;4.38;3.83;;;;;;;21.76;57.97;100827.69;5015866;28;20037;-72
2021/07/05 02:03:04;;;;;;;4.90;3.83;;;;;;;21.74;57.80;100822.47;4982339;28;20033;-72
2021/07/05 02:05:30;;;;;;;4.80;3.85;;;;;;;21.75;57.95;100824.19;4998553;28;20037;-74
2021/07/05 02:07:56;;;;;;;5.10;3.63;;;;;;;21.76;57.81;100811.91;4998060;28;20026;-71
2021/07/05 02:10:26;;;;;;;4.45;3.30;;;;;;;21.74;57.92;100826.84;5015527;28;20056;-72
2021/07/05 02:12:54;;;;;;;5.07;3.78;;;;;;;21.75;58.14;100826.81;5015461;28;20072;-72
2021/07/05 02:15:19;;;;;;;4.95;3.53;;;;;;;21.74;57.86;100817.19;5015647;28;20420;-72
2021/07/05 02:17:45;;;;;;;6.97;3.38;;;;;;;21.74;57.72;100811.06;5015669;28;20076;-72
2021/07/05 02:20:15;;;;;;;5.20;3.95;;;;;;;21.75;58.05;100818.94;4998234;28;20484;-72
2021/07/05 02:22:42;;;;;;;5.65;4.25;;;;;;;21.71;57.86;100811.97;5016309;28;20022;-75
2021/07/05 02:25:10;;;;;;;3.97;3.47;;;;;;;21.73;57.81;100810.19;5017880;28;20124;-75
2021/07/05 02:27:36;;;;;;;4.35;3.70;;;;;;;21.75;57.77;100811.03;5000215;28;20030;-76
2021/07/05 02:30:06;;;;;;;7.10;3.47;;;;;;;21.74;57.67;100816.31;5017928;28;20018;-75
2021/07/05 02:32:32;;;;;;;4.82;3.83;;;;;;;21.75;57.63;100808.41;4984268;28;20044;-75
2021/07/05 02:34:57;;;;;;;3.58;3.15;;;;;;;21.75;57.58;100811.03;5018497;28;20037;-75
2021/07/05 02:37:23;;;;;;;5.25;3.45;;;;;;;21.73;57.60;100804.94;5018402;28;20056;-75
2021/07/05 02:39:49;;;;;;;7.35;4.15;;;;;;;21.71;57.72;100796.19;5000200;28;20036;-72
2021/07/05 02:42:14;;;;;;;4.80;3.25;;;;;;;21.73;57.50;100815.44;5015092;28;20022;-72
2021/07/05 02:44:40;;;;;;;6.82;3.42;;;;;;;21.73;57.65;100818.09;4981378;28;20037;-72
2021/07/05 02:47:05;;;;;;;6.05;3.50;;;;;;;21.73;57.50;100804.06;4997688;28;20380;-73
2021/07/05 02:49:30;;;;;;;5.35;4.10;;;;;;;21.73;57.52;100810.19;5015167;28;20030;-73
2021/07/05 02:51:56;;;;;;;5.65;3.80;;;;;;;21.74;57.50;100817.19;5015368;28;20038;-72
2021/07/05 02:54:21;;;;;;;4.57;3.17;;;;;;;21.73;57.52;100810.19;4997094;28;20037;-72
2021/07/05 02:56:47;;;;;;;5.85;3.47;;;;;;;21.73;57.38;100815.44;4981265;28;20042;-72
2021/07/05 02:59:13;;;;;;;5.32;3.95;;;;;;;21.73;57.53;100811.97;4996991;28;20033;-72
2021/07/05 03:01:39;;;;;;;3.90;3.42;;;;;;;21.74;57.58;100817.19;4981582;28;20491;-72
2021/07/05 03:04:04;;;;;;;4.90;3.42;;;;;;;21.74;57.58;100808.44;5014470;28;20034;-72
2021/07/05 03:06:30;;;;;;;8.38;5.40;;;;;;;21.69;57.43;100797.97;5014429;28;20045;-72
2021/07/05 03:08:55;;;;;;;10.77;3.97;;;;;;;21.72;57.34;100797.94;4997920;28;20050;-72
2021/07/05 03:11:20;;;;;;;4.68;3.45;;;;;;;21.69;57.45;100791.84;5020121;28;20042;-72
2021/07/05 03:13:46;;;;;;;4.72;3.35;;;;;;;21.72;57.54;100800.56;5021444;28;20046;-72
2021/07/05 03:16:12;;;;;;;5.15;3.88;;;;;;;21.73;57.40;100802.28;4990590;28;20033;-74
2021/07/05 03:18:38;;;;;;;4.30;2.70;;;;;;;21.68;57.46;100793.59;5016358;28;20046;-73
2021/07/05 03:21:03;;;;;;;6.65;3.35;;;;;;;21.73;57.42;100798.78;4997667;28;20042;-72
2021/07/05 03:23:30;;;;;;;6.35;3.90;;;;;;;21.73;57.14;100790.91;5015221;28;20026;-72
2021/07/05 03:25:56;;;;;;;4.38;3.25;;;;;;;21.72;57.53;100802.31;5015289;28;20030;-72
2021/07/05 03:28:21;;;;;;;6.07;4.03;;;;;;;21.70;57.57;100796.22;5014421;28;20022;-72
2021/07/05 03:30:49;;;;;;;5.63;3.85;;;;;;;21.72;57.20;100802.31;4996728;28;20069;-72
2021/07/05 03:33:15;;;;;;;4.70;3.08;;;;;;;21.70;57.21;100804.97;5014289;28;20022;-72
2021/07/05 03:35:41;;;;;;;6.60;3.80;;;;;;;21.71;57.20;100806.72;4997734;28;20097;-75
2021/07/05 03:38:07;;;;;;;6.75;4.28;;;;;;;21.71;57.00;100803.22;5016082;28;20452;-75
2021/07/05 03:40:35;;;;;;;4.97;3.30;;;;;;;21.72;57.10;100805.81;4998937;28;20069;-75
2021/07/05 03:43:02;;;;;;;7.95;3.38;;;;;;;21.67;57.07;100797.16;5015927;28;20026;-75
2021/07/05 03:45:30;;;;;;;4.50;3.30;;;;;;;21.71;57.07;100798.81;5016519;28;20057;-76
2021/07/05 03:47:57;;;;;;;4.85;3.22;;;;;;;21.70;57.25;100804.09;5018781;28;20025;-75
2021/07/05 03:50:22;;;;;;;5.68;3.75;;;;;;;21.71;57.09;100800.59;5018886;28;20034;-75
2021/07/05 03:52:49;;;;;;;4.93;3.72;;;;;;;21.69;57.26;100807.63;5019110;28;20030;-76
2021/07/05 03:55:19;;;;;;;6.22;3.22;;;;;;;21.71;57.18;100811.97;5018556;28;20034;-76
2021/07/05 03:57:45;;;;;;;6.18;4.28;;;;;;;21.73;57.20;100817.22;4999855;28;20025;-78
2021/07/05 04:00:14;;;;;;;5.93;3.58;;;;;;;21.74;57.18;100821.59;5000355;28;20475;-75
2021/07/05 04:02:40;;;;;;;4.95;3.42;;;;;;;21.74;57.18;100811.06;4999717;28;20022;-75
2021/07/05 04:05:06;;;;;;;5.78;2.90;;;;;;;21.80;57.22;100810.97;4966728;28;20032;-75
2021/07/05 04:07:33;;;;;;;4.10;3.45;;;;;;;21.78;57.19;100815.38;5017375;28;20022;-74
2021/07/05 04:09:58;;;;;;;4.68;2.83;;;;;;;21.81;57.25;100815.28;5017569;28;20104;-74
2021/07/05 04:12:24;;;;;;;5.22;3.85;;;;;;;21.78;57.31;100810.13;5017143;28;20384;-75
2021/07/05 04:14:52;;;;;;;4.78;2.95;;;;;;;21.80;57.37;100826.75;5017068;28;20065;-74
2021/07/05 04:17:17;;;;;;;6.10;3.60;;;;;;;21.78;57.60;100823.28;5000299;28;20046;-74
2021/07/05 04:19:45;;;;;;;4.00;3.17;;;;;;;21.77;57.67;100824.16;4983035;28;20128;-75
2021/07/05 04:22:16;;;;;;;5.93;3.42;;;;;;;21.82;57.61;100818.78;5016810;28;20028;-75
2021/07/05 04:24:43;;;;;;;4.38;2.92;;;;;;;21.83;57.60;100823.16;5016638;28;20038;-74
2021/07/05 04:27:09;;;;;;;7.20;3.90;;;;;;;21.82;57.63;100818.78;5016685;28;20057;-74
2021/07/05 04:29:35;;;;;;;4.82;2.83;;;;;;;21.79;57.76;100809.22;5016946;28;20026;-74
2021/07/05 04:32:01;;;;;;;3.70;2.92;;;;;;;21.79;57.86;100801.31;4999387;28;20030;-75
2021/07/05 04:34:26;;;;;;;4.68;3.25;;;;;;;21.83;57.65;100800.34;4998834;28;20029;-75
2021/07/05 04:36:52;;;;;;;3.67;3.28;;;;;;;21.81;57.74;100782.88;5016138;28;20030;-76
2021/07/05 04:39:17;;;;;;;4.03;3.03;;;;;;;21.80;57.86;100768.84;4982765;28;20048;-76
2021/07/05 04:41:42;;;;;;;5.55;3.28;;;;;;;21.81;57.75;100773.19;4982820;28;20054;-76
2021/07/05 04:44:11;;;;;;;4.53;3.42;;;;;;;21.84;57.76;100782.78;5017086;28;20026;-76
2021/07/05 04:46:38;;;;;;;4.45;3.55;;;;;;;21.82;57.75;100793.34;4998792;28;20081;-76
2021/07/05 04:49:04;;;;;;;4.40;3.17;;;;;;;21.84;58.03;100798.59;5000176;28;20091;-77
2021/07/05 04:51:29;;;;;;;6.47;3.65;;;;;;;21.84;57.66;100796.81;5002510;28;20026;-74
2021/07/05 04:53:54;;;;;;;4.40;3.42;;;;;;;21.83;57.78;100800.34;5003553;28;20097;-75
2021/07/05 04:56:20;;;;;;;5.13;3.35;;;;;;;21.85;57.70;100809.09;5003316;28;20038;-75
2021/07/05 04:58:45;;;;;;;5.43;3.00;;;;;;;21.85;57.66;100808.22;4986481;28;20034;-75
2021/07/05 05:01:11;;;;;;;4.32;2.97;;;;;;;21.83;57.59;100810.88;5020383;28;20022;-74
2021/07/05 05:03:39;;;;;;;4.70;2.80;;;;;;;21.82;57.91;100808.25;5020551;28;20034;-75
2021/07/05 05:06:04;;;;;;;5.80;3.53;;;;;;;21.81;57.54;100801.31;5019707;28;20025;-74
2021/07/05 05:08:29;;;;;;;5.43;3.50;;;;;;;21.83;57.90;100810.00;4985683;28;20365;-74
2021/07/05 05:10:55;;;;;;;3.65;2.85;;;;;;;21.81;57.82;100807.41;5019465;28;20523;-74
2021/07/05 05:13:20;;;;;;;5.70;3.67;;;;;;;21.81;57.73;100804.75;5002494;28;20401;-74
2021/07/05 05:15:46;;;;;;;8.32;3.75;;;;;;;21.73;57.27;100810.19;5001760;28;20029;-74
2021/07/05 05:18:11;;;;;;;8.32;4.10;;;;;;;21.52;55.95;100810.59;4986150;28;20030;-76
2021/07/05 05:20:36;;;;;;;8.48;5.07;;;;;;;21.15;56.12;100809.47;5019576;28;20041;-75
2021/07/05 05:23:02;;;;;;;8.50;4.40;;;;;;;20.87;55.92;100801.16;5018829;28;20109;-73
2021/07/05 05:25:27;;;;;;;9.73;4.47;;;;;;;20.87;56.58;100799.38;5018961;28;20041;-75
2021/07/05 05:27:54;;;;;;;12.55;5.75;;;;;;;20.81;56.22;100809.09;5001349;28;20111;-75
2021/07/05 05:30:21;;;;;;;11.60;5.63;;;;;;;20.77;56.29;100804.81;5001109;28;20030;-75
2021/07/05 05:32:48;;;;;;;9.18;4.22;;;;;;;20.74;55.96;100800.47;5018167;28;20036;-75
2021/07/05 05:35:16;;;;;;;8.95;5.20;;;;;;;20.67;56.04;100789.16;5000704;28;20055;-76
2021/07/05 05:37:41;;;;;;;10.88;5.75;;;;;;;20.68;55.98;100790.91;5018548;28;20041;-76
2021/07/05 05:40:07;;;;;;;12.73;5.85;;;;;;;20.70;55.73;100806.63;5000988;28;20133;-76
2021/07/05 05:42:32;;;;;;;8.43;4.65;;;;;;;20.68;55.81;100800.53;5000406;28;20033;-75
2021/07/05 05:44:57;;;;;;;10.98;4.93;;;;;;;20.66;55.82;100794.44;5000974;28;20076;-76
2021/07/05 05:47:23;;;;;;;12.82;4.82;;;;;;;20.54;55.97;100794.59;5000583;28;20511;-76
2021/07/05 05:49:48;;;;;;;12.90;5.13;;;;;;;20.56;55.74;100790.22;4984439;28;20439;-75
2021/07/05 05:52:14;;;;;;;13.40;5.00;;;;;;;20.58;55.87;100799.81;5000269;28;20052;-75
2021/07/05 05:54:39;;;;;;;11.40;5.05;;;;;;;20.65;55.62;100801.44;5000303;28;20380;-76
2021/07/05 05:57:05;;;;;;;11.90;5.55;;;;;;;20.44;56.15;100798.25;4999807;28;20080;-76
2021/07/05 05:59:33;;;;;;;6.68;4.43;;;;;;;20.45;56.05;100797.38;5017255;28;20498;-76
2021/07/05 06:01:58;;;;;;;13.80;5.25;;;;;;;20.40;56.08;100793.94;4999300;28;20040;-75
2021/07/05 06:04:24;;;;;;;11.05;5.50;;;;;;;20.50;56.00;100804.31;5016890;28;20383;-75
2021/07/05 06:06:49;;;;;;;9.40;4.20;;;;;;;20.47;56.29;100811.34;5016909;28;20087;-75
2021/07/05 06:09:15;;;;;;;10.45;5.00;;;;;;;20.42;56.42;100808.78;4979649;28;20046;-75
2021/07/05 06:11:41;;;;;;;16.58;5.78;;;;;;;20.36;56.19;100810.63;4997068;28;20109;-72
2021/07/05 06:14:07;;;;;;;10.70;5.03;;;;;;;20.39;55.98;100802.69;4994548;28;20026;-72
2021/07/05 06:16:34;;;;;;;10.57;5.45;;;;;;;20.45;56.27;100803.50;4994419;28;20027;-72
2021/07/05 06:19:00;;;;;;;12.98;5.75;;;;;;;20.47;55.88;100806.09;4995132;28;20034;-73
2021/07/05 06:21:26;;;;;;;9.98;5.53;;;;;;;20.42;56.15;100810.53;4995017;28;20428;-72
2021/07/05 06:23:56;;;;;;;8.98;5.50;;;;;;;20.34;56.36;100815.88;4996177;28;20451;-71
2021/07/05 06:26:21;;;;;;;10.07;5.05;;;;;;;20.31;56.37;100811.53;4996436;28;20026;-72
2021/07/05 06:28:47;;;;;;;10.32;4.70;;;;;;;20.28;56.60;100819.44;4978978;28;20037;-72
2021/07/05 06:31:13;;;;;;;12.45;5.03;;;;;;;20.32;56.91;100829.03;4995092;28;20069;-72
2021/07/05 06:33:39;;;;;;;11.50;6.15;;;;;;;20.33;56.83;100828.13;4995105;28;20432;-72
2021/07/05 06:36:05;;;;;;;15.75;6.03;;;;;;;20.36;56.49;100827.25;4996894;28;20048;-72
2021/07/05 06:38:31;;;;;;;9.55;5.38;;;;;;;20.40;56.79;100830.69;4999087;28;20057;-72
2021/07/05 06:40:57;;;;;;;17.83;5.90;;;;;;;20.62;56.33;100819.91;5002621;28;20037;-71
2021/07/05 06:43:23;;;;;;;9.98;4.13;;;;;;;20.80;55.80;100821.38;4999657;28;20030;-75
2021/07/05 06:45:48;;;;;;;13.65;5.55;;;;;;;20.97;55.38;100824.63;4996604;28;20031;-76
2021/07/05 06:48:13;;;;;;;8.95;4.63;;;;;;;21.06;55.22;100818.34;4996562;28;20121;-77
2021/07/05 06:50:39;;;;;;;8.55;5.15;;;;;;;21.16;55.12;100813.84;4963677;28;20476;-77
2021/07/05 06:53:05;;;;;;;12.50;4.90;;;;;;;21.23;54.83;100816.34;4996979;28;20045;-77
2021/07/05 06:55:31;;;;;;;9.70;4.70;;;;;;;21.30;54.80;100817.97;4996256;28;20425;-76
2021/07/05 06:57:56;;;;;;;6.75;4.65;;;;;;;21.34;54.81;100824.06;4994641;28;20076;-72
2021/07/05 07:00:24;;;;;;;12.38;5.78;;;;;;;21.32;55.00;100821.44;4993855;28;20026;-72
2021/07/05 07:02:53;;;;;;;7.88;5.55;;;;;;;21.36;55.11;100817.00;4993522;28;20073;-72
2021/07/05 07:05:21;;;;;;;6.30;3.90;;;;;;;21.44;55.14;100817.75;4995085;28;20057;-72
2021/07/05 07:07:49;;;;;;;11.77;4.43;;;;;;;21.49;55.13;100829.06;4994993;28;20461;-72
2021/07/05 07:10:16;;;;;;;10.30;4.85;;;;;;;21.51;55.27;100823.78;4993657;28;20054;-76
2021/07/05 07:12:45;;;;;;;7.82;4.25;;;;;;;21.52;55.26;100817.63;4993493;28;20479;-76
2021/07/05 07:15:12;;;;;;;7.90;4.55;;;;;;;21.57;55.25;100832.41;4995181;28;20030;-76
2021/07/05 07:20:04;;;;;;;8.25;4.78;;;;;;;21.56;55.54;100835.06;4995490;28;20603;-76
2021/07/05 07:22:30;;;;;;;13.15;5.15;;;;;;;21.55;55.35;100828.09;4995302;28;20022;-72
2021/07/05 07:24:55;;;;;;;8.10;4.85;;;;;;;21.54;55.59;100835.13;4977103;28;20153;-72
2021/07/05 07:27:21;;;;;;;8.25;4.80;;;;;;;21.57;55.62;100839.44;4993703;28;20038;-76
2021/07/05 07:29:46;;;;;;;7.47;4.38;;;;;;;21.54;55.70;100829.88;4977714;28;20417;-76
2021/07/05 07:32:11;;;;;;;5.60;4.20;;;;;;;21.58;55.71;100838.53;4977513;28;20031;-76
2021/07/05 07:34:37;;;;;;;9.15;3.60;;;;;;;21.58;55.68;100838.53;4993482;28;20486;-72
2021/07/05 07:37:05;;;;;;;5.15;3.90;;;;;;;21.56;55.78;100837.69;4994652;28;20531;-72
2021/07/05 07:39:39;;;;;;;5.70;4.28;;;;;;;21.56;55.74;100838.56;4993089;28;20502;-72
2021/07/05 07:42:04;;;;;;;7.00;4.35;;;;;;;21.58;55.68;100847.31;4993412;28;20362;-72
2021/07/05 07:44:30;;;;;;;8.00;4.03;;;;;;;21.58;55.72;100846.44;4994335;28;20106;-72
2021/07/05 07:46:55;;;;;;;6.80;4.03;;;;;;;21.59;55.55;100838.53;4993661;28;20065;-72
2021/07/05 07:49:21;;;;;;;6.30;4.85;;;;;;;21.61;55.67;100849.91;4977010;28;20034;-72
2021/07/05 07:51:46;;;;;;;5.30;4.20;;;;;;;21.63;55.57;100844.59;4992986;28;20472;-72
2021/07/05 07:54:12;;;;;;;6.55;5.10;;;;;;;21.62;55.06;100843.75;4994231;28;20038;-72
2021/07/05 07:56:37;;;;;;;6.10;3.80;;;;;;;21.63;55.52;100842.84;4961640;28;20058;-76
2021/07/05 07:59:03;;;;;;;5.90;4.40;;;;;;;21.64;55.24;100841.09;4995038;28;20056;-76
2021/07/05 08:01:28;;;;;;;7.65;4.50;;;;;;;21.63;54.94;100839.34;4993690;28;20026;-76
2021/07/05 08:03:55;;;;;;;6.00;3.80;;;;;;;21.62;55.01;100853.41;4995168;28;20041;-76
2021/07/05 08:06:21;;;;;;;6.97;4.60;;;;;;;21.65;54.92;100845.44;4993893;28;20534;-76
2021/07/05 08:08:49;;;;;;;7.40;4.80;;;;;;;21.67;55.11;100855.06;4993451;28;20038;-72
2021/07/05 08:11:15;;;;;;;7.85;4.65;;;;;;;21.68;54.74;100850.66;5012252;28;20056;-72
2021/07/05 08:13:40;;;;;;;5.45;4.65;;;;;;;21.69;54.54;100850.63;4996098;28;20038;-72
2021/07/05 08:16:05;;;;;;;10.63;5.07;;;;;;;21.68;54.41;100842.78;4980136;28;20034;-72
2021/07/05 08:18:31;;;;;;;7.10;4.10;;;;;;;21.73;54.29;100854.06;4980009;28;20026;-72
2021/07/05 08:20:56;;;;;;;10.10;4.65;;;;;;;21.73;54.58;100849.66;4996198;28;20388;-72
2021/07/05 08:23:22;;;;;;;7.57;4.53;;;;;;;21.75;54.72;100847.88;4996017;28;20053;-72
2021/07/05 08:25:47;;;;;;;6.07;3.95;;;;;;;21.77;54.69;100847.00;4999430;28;20028;-72
2021/07/05 08:28:13;;;;;;;7.32;4.47;;;;;;;21.81;54.71;100841.63;5017449;28;20038;-72
2021/07/05 08:30:38;;;;;;;5.50;4.00;;;;;;;21.86;54.53;100847.69;4999890;28;20026;-72
2021/07/05 08:33:04;;;;;;;6.10;4.17;;;;;;;21.85;54.48;100853.84;4999859;28;20026;-72
2021/07/05 08:35:29;;;;;;;10.07;4.47;;;;;;;21.81;54.27;100846.06;4999789;28;20069;-72
2021/07/05 08:37:55;;;;;;;7.73;4.50;;;;;;;21.83;54.03;100852.13;4999576;28;20921;-72
2021/07/05 08:40:21;;;;;;;9.45;4.25;;;;;;;21.84;54.43;100856.50;5000075;28;20128;-72
2021/07/05 08:42:48;;;;;;;9.00;4.60;;;;;;;21.87;54.09;100845.91;4999559;28;20451;-72
2021/07/05 08:45:14;;;;;;;7.75;4.75;;;;;;;21.90;53.82;100845.88;5017085;28;20117;-72
2021/07/05 08:47:42;;;;;;;7.05;4.10;;;;;;;21.92;53.80;100842.31;5017262;28;20037;-72
2021/07/05 08:50:09;;;;;;;;;;;;;;;21.99;53.78;100845.72;4999456;28;20022;-72
2021/07/05 08:52:38;;;;;;;9.00;4.40;;;;;;;21.95;54.30;100841.38;5016824;28;20047;-72
2021/07/05 08:55:04;;;;;;;10.70;5.30;;;;;;;21.98;54.32;100851.84;4999649;28;20058;-72
2021/07/05 08:57:40;;;;;;;7.05;4.35;;;;;;;21.96;54.39;100845.72;5016834;28;20022;-72
2021/07/05 09:00:09;;;;;;;8.40;4.40;;;;;;;21.94;54.40;100839.66;4999316;28;20038;-72
2021/07/05 09:02:35;;;;;;;8.70;4.85;;;;;;;21.97;54.50;100843.06;4999285;28;20014;-72
2021/07/05 09:05:00;;;;;;;5.95;4.00;;;;;;;22.01;54.07;100836.91;4982953;28;20571;-72
2021/07/05 09:07:26;;;;;;;11.10;5.80;;;;;;;22.06;54.08;100836.81;4982928;28;20392;-72
2021/07/05 09:09:58;;;;;;;;;;;;;;;22.09;54.08;100828.81;5017047;28;20081;-72
2021/07/05 09:12:24;;;;;;;;;;;;;;;22.16;53.94;100832.22;5016608;28;19964;-72
2021/07/05 09:15:07;;;;;;;;;;;;;;;22.11;54.13;100834.94;4999126;28;19909;-72
2021/07/05 09:17:33;;;;;;;;;;;;;;;22.10;54.16;100836.69;5016572;28;19910;-72
2021/07/05 09:20:00;;;;;;;;;;;;;;;22.14;54.04;100836.66;5016579;28;19931;-74
2021/07/05 09:22:25;;;;;;;;;;;;;;;22.17;53.96;100837.47;5016694;28;19955;-72
2021/07/05 09:24:57;;;;;;;9.20;5.50;;;;;;;22.12;54.10;100834.03;4998993;28;20016;-72
2021/07/05 09:27:35;;;;;;;;;;;;;;;22.14;54.21;100837.50;4999041;28;19909;-73
2021/07/05 09:30:07;;;;;;;;;;;;;;;22.11;54.31;100845.47;5016372;28;20361;-72
2021/07/05 09:32:33;;;;;;;;;;;;;;;22.12;54.25;100846.34;4999141;28;19918;-72
2021/07/05 09:34:59;;;;;;;;;;;;;;;22.11;54.38;100850.75;5016160;28;19910;-72
2021/07/05 09:37:27;;;;;;;5.90;4.50;;;;;;;22.10;54.37;100844.59;4998470;28;20242;-72
2021/07/05 09:40:05;;;;;;;9.20;5.40;;;;;;;22.11;54.10;100848.09;5016361;28;20105;-72
2021/07/05 09:42:32;;;;;;;6.27;3.77;;;;;;;22.10;54.45;100847.22;5016249;28;20018;-72
2021/07/05 09:44:59;;;;;;;6.07;4.40;;;;;;;22.10;54.54;100847.22;4998477;28;20491;-72
2021/07/05 09:47:26;;;;;;;4.93;4.07;;;;;;;22.09;54.44;100844.63;4998316;28;20036;-72
2021/07/05 09:49:53;;;;;;;5.60;4.00;;;;;;;22.10;54.54;100847.22;4998523;28;20388;-72
2021/07/05 09:52:26;;;;;;;6.25;4.43;;;;;;;22.12;54.38;100859.50;4982134;28;20096;-72
2021/07/05 09:54:58;;;;;;;6.55;4.63;;;;;;;22.10;54.37;100859.53;4998184;28;20388;-72
2021/07/05 09:57:30;;;;;;;8.25;5.18;;;;;;;22.13;54.42;100855.97;5015724;28;20026;-72
2021/07/05 10:00:07;;;;;;;5.57;4.40;;;;;;;22.12;54.37;100860.38;4999026;28;20468;-72
2021/07/05 10:02:34;;;;;;;5.20;4.50;;;;;;;22.08;54.53;100849.03;5015875;28;20105;-72
2021/07/05 10:05:13;;;;;;;7.03;4.60;;;;;;;22.13;54.55;100854.22;4982403;28;20053;-72
2021/07/05 10:07:39;;;;;;;6.25;4.00;;;;;;;22.12;54.50;100855.09;4997829;28;20064;-72
2021/07/05 10:10:14;;;;;;;7.88;4.80;;;;;;;22.16;54.45;100848.91;5015311;28;20050;-73
2021/07/05 10:12:50;;;;;;;9.85;4.80;;;;;;;22.19;54.24;100851.47;5015613;28;20061;-72
2021/07/05 10:15:16;;;;;;;5.30;4.40;;;;;;;22.21;54.25;100851.41;4998122;28;20026;-72
2021/07/05 10:17:46;;;;;;;6.90;4.40;;;;;;;22.17;54.14;100847.13;4998008;28;20033;-72
2021/07/05 10:20:14;;;;;;;5.80;5.10;;;;;;;22.21;54.24;100854.91;5015510;28;20021;-72
2021/07/05 10:22:41;;;;;;;4.20;3.80;;;;;;;22.22;54.44;100850.50;5015357;28;20018;-72
2021/07/05 10:25:07;;;;;;;6.10;4.50;;;;;;;22.18;54.43;100844.47;4981696;28;20033;-72
2021/07/05 10:27:34;;;;;;;6.90;4.10;;;;;;;22.19;54.33;100856.75;4997977;28;20042;-72
2021/07/05 10:30:00;;;;;;;6.05;3.55;;;;;;;22.21;54.45;100856.69;4999565;28;20022;-72
2021/07/05 10:32:25;;;;;;;6.00;4.30;;;;;;;22.18;54.29;100846.22;5001336;28;20037;-72
2021/07/05 10:34:54;;;;;;;6.72;4.18;;;;;;;22.20;54.39;100850.53;4971806;28;20022;-71
2021/07/05 10:37:30;;;;;;;7.50;4.90;;;;;;;22.20;54.46;100849.72;5001083;28;20534;-72
2021/07/05 10:39:57;;;;;;;5.05;4.25;;;;;;;22.22;54.40;100854.03;4998220;28;20029;-75
2021/07/05 10:42:54;;;;;;;4.70;4.22;;;;;;;22.24;54.33;100860.13;4998143;28;20468;-76
2021/07/05 10:45:22;;;;;;;7.63;4.97;;;;;;;22.22;54.31;100856.66;5015367;28;20183;-77
2021/07/05 10:47:54;;;;;;;7.20;3.85;;;;;;;22.27;54.22;100851.31;4997074;28;20030;-76
2021/07/05 10:50:42;;;;;;;6.80;5.15;;;;;;;22.29;54.17;100844.25;5015172;28;20033;-77
2021/07/05 10:53:09;;;;;;;4.90;3.85;;;;;;;22.31;54.05;100853.00;4997643;28;20026;-76
2021/07/05 10:55:41;;;;;;;8.37;4.47;;;;;;;22.26;54.14;100847.81;5015141;28;20041;-76
2021/07/05 10:58:16;;;;;;;5.97;4.63;;;;;;;22.29;54.38;100846.88;4997287;28;20041;-80
2021/07/05 11:00:43;;;;;;;5.10;4.10;;;;;;;22.28;54.31;100848.66;5015099;28;20036;-76
2021/07/05 11:03:09;;;;;;;7.00;3.90;;;;;;;22.27;54.34;100840.78;5014985;28;20109;-75
2021/07/05 11:05:43;;;;;;;6.72;3.95;;;;;;;22.24;52.30;100854.88;4997422;28;20092;-76
2021/07/05 11:08:19;;;;;;;6.55;3.72;;;;;;;22.18;51.94;100857.63;4996880;28;20381;-76
2021/07/05 11:10:44;;;;;;;7.22;3.35;;;;;;;22.14;52.09;100853.31;5014758;28;20053;-76
2021/07/05 11:13:10;;;;;;;7.50;3.90;;;;;;;22.12;51.82;100849.84;4997148;28;20037;-72
2021/07/05 11:15:44;;;;;;;6.47;3.90;;;;;;;22.12;51.66;100852.47;5014280;28;20503;-71
2021/07/05 11:18:09;;;;;;;8.10;4.25;;;;;;;22.09;51.63;100845.50;5014634;28;20079;-72
2021/07/05 11:20:37;;;;;;;5.47;4.22;;;;;;;22.07;51.70;100844.66;5014291;28;20029;-72
2021/07/05 11:23:02;;;;;;;7.57;3.88;;;;;;;22.06;51.62;100842.09;5014426;28;20024;-72
2021/07/05 11:25:28;;;;;;;6.18;3.22;;;;;;;22.06;51.27;100840.31;4980893;28;20124;-71
2021/07/05 11:27:54;;;;;;;6.13;3.28;;;;;;;22.07;50.42;100849.09;4997035;28;20060;-74